Nearby METAR Reports

 

KMPO - Mt. Pocono, Pennsylvania, USA
Distance from station: NW 7mi, 12km
Updated: Mon, 19-Apr-2021 1:53am EDT
Overcast
Overcast
 Wind from NW
Wind: NW 3 mph , 6 km/h
Temperature: 39°F , 4°C
Dew Point: 36°F , 2°C
Humidity: 87%
Barometer: 29.86 inHg , 1011.2 hPa
Clouds: Overcast
Visibility: 10 miles , 16 km
Cloud details: Few Clouds 8000 ft
Overcast 11000 ft
2021/04/19 05:53 KMPO 190553Z AUTO 31003KT 10SM FEW080 OVC110 04/02 A2986 RMK AO2 SLP117 T00390017 10094 20039 56000 $
K12N - Andover, New Jersey, USA
Distance from station: E 29mi, 47km
Updated: Mon, 19-Apr-2021 1:54am EDT

 Wind from calm
Wind: Calm
Temperature: 46°F , 8°C
Dew Point: 39°F , 4°C
Humidity: 76%
Barometer: 29.87 inHg , 1011.5 hPa
2021/04/19 05:54 K12N 190554Z AUTO 00000KT 08/04 A2987 RMK AO1 SLP114 T00780044 10128 20072 50001 $
 
KABE - Allentown, Pennsylvania, USA
Distance from station: SSW 29mi, 47km
Updated: Mon, 19-Apr-2021 1:51am EDT
Light rain, Overcast
Light rain, Overcast
 Wind from varies
Wind: varies 5 mph , 7 km/h
Temperature: 46°F , 8°C
Wind Chill: 44°F , 7°C
Dew Point: 39°F , 4°C
Humidity: 76%
Barometer: 29.87 inHg , 1011.5 hPa
Summary: Light rain
Clouds: Overcast
Visibility: 10 miles , 16 km
Cloud details: Mostly cloudy 5500 ft
Overcast 7000 ft
2021/04/19 05:51 KABE 190551Z VRB04KT 10SM -RA BKN055 OVC070 08/04 A2987 RMK AO2 RAB35 SLP116 P0003 6//// T00780044 10139 20061 53002 $
KAVP - Avoca/Wilkes B., Pennsylvania, USA
Distance from station: NW 29mi, 47km
Updated: Mon, 19-Apr-2021 1:54am EDT
Overcast
Overcast
 Wind from ESE
Wind: ESE 5 mph , 7 km/h
Temperature: 46°F , 8°C
Wind Chill: 44°F , 7°C
Dew Point: 37°F , 3°C
Humidity: 71%
Barometer: 29.86 inHg , 1011.2 hPa
Clouds: Overcast
Visibility: 10 miles , 16 km
Cloud details: Overcast 8000 ft
2021/04/19 05:54 KAVP 190554Z 11004KT 10SM OVC080 08/03 A2986 RMK AO2 SLP109 T00830028 10122 20078 50000 $
 
KFWN - Sussex, New Jersey, USA
Distance from station: ENE 35mi, 57km
Updated: Mon, 19-Apr-2021 1:53am EDT
Overcast
Overcast
 Wind from calm
Wind: Calm
Temperature: 45°F , 7°C
Dew Point: 39°F , 4°C
Humidity: 81%
Barometer: 29.87 inHg , 1011.5 hPa
Clouds: Overcast
Visibility: 10 miles , 16 km
Cloud details: Few Clouds 6000 ft
Partly cloudy 7000 ft
Overcast 8500 ft
2021/04/19 05:53 KFWN 190553Z AUTO 00000KT 10SM FEW060 SCT070 OVC085 07/04 A2987 RMK AO2 SLP114 T00720044 10133 20061 52001
KXLL - Allentown Queen, Pennsylvania, USA
Distance from station: SSW 35mi, 57km
Updated: Mon, 19-Apr-2021 2:35am EDT
Mostly cloudy
Mostly cloudy
 Wind from S
Wind: S 3 mph , 6 km/h
Temperature: 46°F , 8°C
Dew Point: 37°F , 3°C
Humidity: 71%
Barometer: 29.88 inHg , 1011.9 hPa
Clouds: Mostly cloudy
Visibility: 10 miles , 16 km
Cloud details: Mostly cloudy 12000 ft
2021/04/19 06:35 KXLL 190635Z AUTO 18003KT 10SM BKN120 08/03 A2988 RMK AO2
 
KUKT - Quakertown Arp, Pennsylvania, USA
Distance from station: S 43mi, 70km
Updated: Mon, 19-Apr-2021 2:35am EDT
Few Clouds
Few Clouds
 Wind from calm
Wind: Calm
Temperature: 41°F , 5°C
Dew Point: 39°F , 4°C
Humidity: 93%
Barometer: 29.87 inHg , 1011.5 hPa
Clouds: Few Clouds
Visibility: 10 miles , 16 km
Cloud details: Few Clouds 6500 ft
2021/04/19 06:35 KUKT 190635Z AUTO 00000KT 10SM FEW065 05/04 A2987 RMK A01
KSMQ - Somerville, New Jersey, USA
Distance from station: SE 44mi, 71km
Updated: Mon, 19-Apr-2021 1:53am EDT
Clear
Clear
 Wind from calm
Wind: Calm
Temperature: 43°F , 6°C
Dew Point: 39°F , 4°C
Humidity: 87%
Barometer: 29.85 inHg , 1010.8 hPa
Clouds: Clear
Visibility: 10 miles , 16 km
2021/04/19 05:53 KSMQ 190553Z AUTO 00000KT 10SM CLR 06/04 A2985 RMK AO2 SLP109 T00560039 10133 20050 50001
 
KMMU - Morristown Muni, New Jersey, USA
Distance from station: ESE 49mi, 79km
Updated: Mon, 19-Apr-2021 2:35am EDT
Clear
Clear
 Wind from calm
Wind: Calm
Temperature: 43°F , 6°C
Dew Point: 41°F , 5°C
Humidity: 93%
Barometer: 29.86 inHg , 1011.2 hPa
Clouds: Clear
Visibility: 10 miles , 16 km
2021/04/19 06:35 KMMU 190635Z AUTO 00000KT 10SM CLR 06/05 A2986 RMK AO2